createdAt,value
2018-07-11T00:00:51.648Z,10.39
2018-07-11T00:01:51.746Z,10.30
2018-07-11T00:02:51.655Z,10.34
2018-07-11T00:03:51.682Z,10.36
2018-07-11T00:04:51.803Z,10.36
2018-07-11T00:05:51.698Z,10.36
2018-07-11T00:06:51.802Z,10.43
2018-07-11T00:07:51.828Z,10.30
2018-07-11T00:08:51.721Z,10.33
2018-07-11T00:09:51.723Z,10.24
2018-07-11T00:10:51.734Z,10.27
2018-07-11T00:11:51.830Z,10.13
2018-07-11T00:12:51.872Z,10.18
2018-07-11T00:13:51.764Z,10.07
2018-07-11T00:14:51.766Z,10.05
2018-07-11T00:15:51.777Z,10.10
2018-07-11T00:16:51.922Z,10.05
2018-07-11T00:17:51.789Z,10.03
2018-07-11T00:18:51.808Z,9.95
2018-07-11T00:19:51.812Z,9.99
2018-07-11T00:20:51.832Z,9.97
2018-07-11T00:21:51.986Z,9.92
2018-07-11T00:22:51.838Z,9.99
2018-07-11T00:23:51.845Z,9.90
2018-07-11T00:24:51.852Z,9.97
2018-07-11T00:25:51.852Z,9.84
2018-07-11T00:26:52.065Z,9.76
2018-07-11T00:27:51.884Z,9.72
2018-07-11T00:28:52.009Z,9.81
2018-07-11T00:29:51.900Z,9.76
2018-07-11T00:30:51.917Z,9.80
2018-07-11T00:31:52.015Z,9.67
2018-07-11T00:32:51.935Z,9.66
2018-07-11T00:33:51.927Z,9.70
2018-07-11T00:34:51.936Z,9.59
2018-07-11T00:35:52.065Z,9.63
2018-07-11T00:36:52.050Z,9.59
2018-07-11T00:37:52.085Z,9.69
2018-07-11T00:38:51.977Z,9.69
2018-07-11T00:39:51.990Z,9.66
2018-07-11T00:40:52.034Z,9.64
2018-07-11T00:41:52.112Z,9.63
2018-07-11T00:42:51.997Z,9.64
2018-07-11T00:43:52.022Z,9.72
2018-07-11T00:44:52.140Z,9.73
2018-07-11T00:45:52.030Z,9.80
2018-07-11T00:46:52.157Z,9.72
2018-07-11T00:47:52.269Z,9.72
2018-07-11T00:48:52.176Z,9.72
2018-07-11T00:49:52.053Z,9.70
2018-07-11T00:50:52.065Z,9.62
2018-07-11T00:51:52.069Z,9.64
2018-07-11T00:52:52.094Z,9.69
2018-07-11T00:53:52.199Z,9.62
2018-07-11T00:54:52.109Z,9.55
2018-07-11T00:55:52.106Z,9.55
2018-07-11T00:56:52.122Z,9.49
2018-07-11T00:57:52.146Z,9.42
2018-07-11T00:58:52.264Z,9.56
2018-07-11T00:59:52.135Z,9.52
2018-07-11T01:00:52.145Z,9.55
2018-07-11T01:01:52.151Z,9.59
2018-07-11T01:02:52.168Z,9.55
2018-07-11T01:03:52.282Z,9.52
2018-07-11T01:04:52.190Z,9.64
2018-07-11T01:05:52.199Z,9.63
2018-07-11T01:06:52.204Z,9.54
2018-07-11T01:07:52.231Z,9.44
2018-07-11T01:08:52.333Z,9.40
2018-07-11T01:09:52.252Z,9.55
2018-07-11T01:10:52.238Z,9.62
2018-07-11T01:11:52.244Z,9.55
2018-07-11T01:12:52.257Z,9.54
2018-07-11T01:13:52.360Z,9.55
2018-07-11T01:14:52.268Z,9.44
2018-07-11T01:15:52.291Z,9.37
2018-07-11T01:16:52.307Z,9.36
2018-07-11T01:17:52.310Z,9.42
2018-07-11T01:18:52.332Z,9.40
2018-07-11T01:19:52.422Z,9.37
2018-07-11T01:20:52.376Z,9.39
2018-07-11T01:21:52.352Z,9.42
2018-07-11T01:22:52.347Z,9.44
2018-07-11T01:23:52.339Z,9.44
2018-07-11T01:24:52.350Z,9.42
2018-07-11T01:25:52.427Z,9.47
2018-07-11T01:26:52.379Z,9.40
2018-07-11T01:27:52.377Z,9.42
2018-07-11T01:28:52.395Z,9.55
2018-07-11T01:29:52.396Z,9.39
2018-07-11T01:30:52.507Z,9.44
2018-07-11T01:31:52.404Z,9.47
2018-07-11T01:32:52.423Z,9.45
2018-07-11T01:33:52.434Z,9.52
2018-07-11T01:34:52.439Z,9.55
2018-07-11T01:35:52.562Z,9.54
2018-07-11T01:36:52.442Z,9.58
2018-07-11T01:37:52.468Z,9.54
2018-07-11T01:38:52.463Z,9.52
2018-07-11T01:39:52.485Z,9.55
2018-07-11T01:40:52.588Z,9.51
2018-07-11T01:41:52.499Z,9.45
2018-07-11T01:42:52.499Z,9.40
2018-07-11T01:43:52.493Z,9.42
2018-07-11T01:44:52.549Z,9.42
2018-07-11T01:45:52.625Z,9.31
2018-07-11T01:46:52.550Z,9.40
2018-07-11T01:47:52.552Z,9.37
2018-07-11T01:48:52.532Z,9.34
2018-07-11T01:49:52.551Z,9.29
2018-07-11T01:50:52.656Z,9.33
2018-07-11T01:51:52.558Z,9.16
2018-07-11T01:52:52.560Z,9.18
2018-07-11T01:53:52.584Z,9.16
2018-07-11T01:54:52.579Z,9.15
2018-07-11T01:55:52.702Z,9.18
2018-07-11T01:56:52.723Z,9.27
2018-07-11T01:57:52.659Z,9.39
2018-07-11T01:58:52.620Z,9.33
2018-07-11T01:59:52.620Z,9.36
2018-07-11T02:00:52.757Z,9.37
2018-07-11T02:01:52.746Z,9.37
2018-07-11T02:02:52.647Z,9.34
2018-07-11T02:03:52.652Z,9.36
2018-07-11T02:04:52.787Z,9.31
2018-07-11T02:05:52.664Z,9.44
2018-07-11T02:06:52.781Z,9.34
2018-07-11T02:07:52.688Z,9.42
2018-07-11T02:08:52.817Z,9.37
2018-07-11T02:09:52.826Z,9.42
2018-07-11T02:10:52.831Z,9.40
2018-07-11T02:11:52.827Z,9.42
2018-07-11T02:12:52.848Z,9.45
2018-07-11T02:13:52.734Z,9.45
2018-07-11T02:14:52.866Z,9.44
2018-07-11T02:15:52.758Z,9.31
2018-07-11T02:16:52.865Z,9.44
2018-07-11T02:17:52.886Z,9.40
2018-07-11T02:18:52.768Z,9.40
2018-07-11T02:19:52.776Z,9.36
2018-07-11T02:20:52.916Z,9.42
2018-07-11T02:21:53.044Z,9.40
2018-07-11T02:22:52.813Z,9.45
2018-07-11T02:23:52.934Z,9.48
2018-07-11T02:24:52.943Z,9.49
2018-07-11T02:25:52.950Z,9.44
2018-07-11T02:26:53.010Z,9.42
2018-07-11T02:27:52.853Z,9.40
2018-07-11T02:28:52.888Z,9.39
2018-07-11T02:29:52.860Z,9.44
2018-07-11T02:30:52.861Z,9.47
2018-07-11T02:31:53.100Z,9.47
2018-07-11T02:32:52.892Z,9.45
2018-07-11T02:33:52.935Z,9.45
2018-07-11T02:34:52.902Z,9.44
2018-07-11T02:35:52.910Z,9.45
2018-07-11T02:36:53.014Z,9.36
2018-07-11T02:37:53.045Z,9.45
2018-07-11T02:38:53.057Z,9.36
2018-07-11T02:39:52.928Z,9.48
2018-07-11T02:40:53.068Z,9.47
2018-07-11T02:41:53.052Z,9.45
2018-07-11T02:42:52.962Z,9.45
2018-07-11T02:43:52.975Z,9.42
2018-07-11T02:44:53.101Z,9.45
2018-07-11T02:45:52.989Z,9.47
2018-07-11T02:46:53.215Z,9.47
2018-07-11T02:47:53.126Z,9.44
2018-07-11T02:48:53.129Z,9.29
2018-07-11T02:49:53.012Z,9.21
2018-07-11T02:50:53.013Z,9.21
2018-07-11T02:51:53.256Z,9.21
2018-07-11T02:52:53.163Z,9.24
2018-07-11T02:53:53.057Z,9.12
2018-07-11T02:54:53.095Z,9.15
2018-07-11T02:55:53.189Z,9.24
2018-07-11T02:56:53.073Z,9.19
2018-07-11T02:57:53.171Z,9.13
2018-07-11T02:58:53.094Z,9.15
2018-07-11T02:59:53.315Z,9.09
2018-07-11T03:00:53.097Z,9.15
2018-07-11T03:01:53.116Z,9.16
2018-07-11T03:02:53.239Z,9.16
2018-07-11T03:03:53.126Z,9.19
2018-07-11T03:04:53.228Z,9.13
2018-07-11T03:05:53.149Z,9.18
2018-07-11T03:06:53.146Z,9.16
2018-07-11T03:07:53.153Z,9.19
2018-07-11T03:08:53.174Z,9.37
2018-07-11T03:09:53.164Z,9.37
2018-07-11T03:10:53.399Z,9.42
2018-07-11T03:11:53.193Z,9.45
2018-07-11T03:12:53.197Z,9.34
2018-07-11T03:13:53.218Z,9.42
2018-07-11T03:14:53.255Z,9.29
2018-07-11T03:15:53.212Z,9.36
2018-07-11T03:16:53.287Z,9.39
2018-07-11T03:17:53.227Z,9.42
2018-07-11T03:18:53.241Z,9.42
2018-07-11T03:19:53.244Z,9.45
2018-07-11T03:20:53.377Z,9.40
2018-07-11T03:21:53.304Z,9.39
2018-07-11T03:22:53.272Z,9.45
2018-07-11T03:23:53.273Z,9.44
2018-07-11T03:24:53.293Z,9.47
2018-07-11T03:25:53.292Z,9.54
2018-07-11T03:26:53.404Z,9.52
2018-07-11T03:27:53.322Z,9.59
2018-07-11T03:28:53.442Z,9.72
2018-07-11T03:29:53.333Z,9.70
2018-07-11T03:30:53.332Z,9.66
2018-07-11T03:31:53.567Z,9.73
2018-07-11T03:32:53.344Z,9.69
2018-07-11T03:33:53.359Z,9.81
2018-07-11T03:34:53.486Z,9.85
2018-07-11T03:35:53.494Z,9.88
2018-07-11T03:36:53.606Z,9.87
2018-07-11T03:37:53.396Z,9.92
2018-07-11T03:38:53.388Z,9.90
2018-07-11T03:39:53.397Z,9.91
2018-07-11T03:40:53.536Z,9.95
2018-07-11T03:41:53.414Z,10.00
2018-07-11T03:42:53.532Z,10.05
2018-07-11T03:43:53.447Z,9.95
2018-07-11T03:44:53.567Z,10.05
2018-07-11T03:45:53.457Z,10.00
2018-07-11T03:46:53.581Z,10.00
2018-07-11T03:47:53.568Z,9.92
2018-07-11T03:48:53.486Z,9.94
2018-07-11T03:49:53.609Z,9.95
2018-07-11T03:50:53.504Z,9.84
2018-07-11T03:51:53.627Z,9.90
2018-07-11T03:52:53.507Z,9.87
2018-07-11T03:53:53.846Z,9.76
2018-07-11T03:54:53.517Z,9.69
2018-07-11T03:55:53.584Z,9.67
2018-07-11T03:56:53.538Z,9.66
2018-07-11T03:57:53.551Z,9.66
2018-07-11T03:58:53.666Z,9.72
2018-07-11T03:59:53.578Z,9.69
2018-07-11T04:00:53.614Z,9.63
2018-07-11T04:01:53.584Z,9.58
2018-07-11T04:02:53.621Z,9.62
2018-07-11T04:03:53.824Z,9.63
2018-07-11T04:04:53.655Z,9.63
2018-07-11T04:05:53.608Z,9.54
2018-07-11T04:06:53.621Z,9.56
2018-07-11T04:07:53.627Z,9.48
2018-07-11T04:08:53.864Z,9.51
2018-07-11T04:09:53.648Z,9.45
2018-07-11T04:10:53.652Z,9.44
2018-07-11T04:11:53.680Z,9.45
2018-07-11T04:12:53.711Z,9.37
2018-07-11T04:13:53.789Z,9.26
2018-07-11T04:14:53.809Z,9.40
2018-07-11T04:15:53.735Z,9.42
2018-07-11T04:16:53.714Z,9.39
2018-07-11T04:17:53.713Z,9.54
2018-07-11T04:18:53.894Z,9.52
2018-07-11T04:19:53.724Z,9.48
2018-07-11T04:20:53.731Z,9.54
2018-07-11T04:21:53.748Z,9.58
2018-07-11T04:22:53.753Z,9.63
2018-07-11T04:23:53.860Z,9.67
2018-07-11T04:24:53.758Z,9.63
2018-07-11T04:25:53.901Z,9.66
2018-07-11T04:26:53.906Z,9.73
2018-07-11T04:27:53.786Z,9.73
2018-07-11T04:28:54.037Z,9.91
2018-07-11T04:29:53.930Z,9.92
2018-07-11T04:30:53.852Z,9.92
2018-07-11T04:31:53.944Z,9.97
2018-07-11T04:32:53.826Z,10.05
2018-07-11T04:33:53.941Z,9.94
2018-07-11T04:34:53.858Z,10.05
2018-07-11T04:35:53.865Z,10.03
2018-07-11T04:36:53.866Z,10.07
2018-07-11T04:37:53.995Z,10.09
2018-07-11T04:38:53.988Z,10.10
2018-07-11T04:39:54.011Z,10.07
2018-07-11T04:40:54.024Z,10.12
2018-07-11T04:41:54.030Z,10.05
2018-07-11T04:42:53.915Z,10.20
2018-07-11T04:43:54.097Z,10.15
2018-07-11T04:44:53.940Z,10.20
2018-07-11T04:45:54.040Z,10.15
2018-07-11T04:46:53.961Z,10.18
2018-07-11T04:47:53.956Z,10.21
2018-07-11T04:48:53.958Z,10.10
2018-07-11T04:49:53.968Z,10.17
2018-07-11T04:50:54.078Z,10.15
2018-07-11T04:51:53.984Z,10.15
2018-07-11T04:52:54.027Z,10.03
2018-07-11T04:53:54.006Z,10.05
2018-07-11T04:54:54.015Z,9.99
2018-07-11T04:55:54.160Z,10.05
2018-07-11T04:56:54.075Z,9.91
2018-07-11T04:57:54.048Z,9.94
2018-07-11T04:58:54.255Z,9.92
2018-07-11T04:59:54.179Z,9.82
2018-07-11T05:00:54.176Z,9.87
2018-07-11T05:01:54.081Z,9.90
2018-07-11T05:02:54.080Z,9.94
2018-07-11T05:03:54.112Z,10.00
2018-07-11T05:04:54.110Z,10.03
2018-07-11T05:05:54.206Z,10.02
2018-07-11T05:06:54.112Z,10.03
2018-07-11T05:07:54.121Z,10.03
2018-07-11T05:08:54.257Z,10.03
2018-07-11T05:09:54.144Z,9.94
2018-07-11T05:10:54.271Z,9.92
2018-07-11T05:11:54.155Z,10.05
2018-07-11T05:12:54.289Z,10.02
2018-07-11T05:13:54.173Z,10.03
2018-07-11T05:14:54.306Z,10.02
2018-07-11T05:15:54.200Z,10.05
2018-07-11T05:16:54.474Z,9.99
2018-07-11T05:17:54.218Z,9.97
2018-07-11T05:18:54.214Z,10.03
2018-07-11T05:19:54.219Z,9.99
2018-07-11T05:20:54.275Z,10.02
2018-07-11T05:21:54.248Z,10.02
2018-07-11T05:22:54.410Z,10.03
2018-07-11T05:23:54.266Z,10.05
2018-07-11T05:24:54.264Z,10.02
2018-07-11T05:25:54.278Z,9.97
2018-07-11T05:26:54.280Z,9.97
2018-07-11T05:27:54.295Z,10.05
2018-07-11T05:28:54.525Z,10.06
2018-07-11T05:29:54.432Z,10.09
2018-07-11T05:30:54.441Z,10.09
2018-07-11T05:31:54.336Z,10.09
2018-07-11T05:32:54.456Z,10.06
2018-07-11T05:33:54.384Z,10.06
2018-07-11T05:34:54.417Z,10.17
2018-07-11T05:35:54.353Z,10.23
2018-07-11T05:36:54.371Z,10.12
2018-07-11T05:37:54.376Z,10.17
2018-07-11T05:38:54.378Z,10.28
2018-07-11T05:39:54.538Z,10.20
2018-07-11T05:40:54.401Z,10.23
2018-07-11T05:41:54.413Z,10.28
2018-07-11T05:42:54.541Z,10.33
2018-07-11T05:43:54.552Z,10.39
2018-07-11T05:44:54.607Z,10.39
2018-07-11T05:45:54.440Z,10.36
2018-07-11T05:46:54.606Z,10.39
2018-07-11T05:47:54.582Z,10.34
2018-07-11T05:48:54.460Z,10.46
2018-07-11T05:49:54.599Z,10.38
2018-07-11T05:50:54.531Z,10.36
2018-07-11T05:51:54.720Z,10.34
2018-07-11T05:52:54.627Z,10.41
2018-07-11T05:53:54.506Z,10.36
2018-07-11T05:54:54.558Z,10.33
2018-07-11T05:55:54.532Z,10.31
2018-07-11T05:56:54.633Z,10.30
2018-07-11T05:57:54.549Z,10.34
2018-07-11T05:58:54.549Z,10.31
2018-07-11T05:59:54.628Z,10.21
2018-07-11T06:00:54.695Z,10.25
2018-07-11T06:01:54.846Z,10.28
2018-07-11T06:02:54.589Z,10.27
2018-07-11T06:03:54.593Z,10.23
2018-07-11T06:04:54.603Z,10.27
2018-07-11T06:05:54.736Z,10.28
2018-07-11T06:06:54.717Z,10.30
2018-07-11T06:07:54.752Z,10.31
2018-07-11T06:08:54.636Z,10.28
2018-07-11T06:09:54.648Z,10.23
2018-07-11T06:10:54.777Z,10.23
2018-07-11T06:11:54.788Z,10.21
2018-07-11T06:12:54.780Z,10.13
2018-07-11T06:13:54.674Z,10.12
2018-07-11T06:14:54.681Z,10.07
2018-07-11T06:15:54.690Z,10.23
2018-07-11T06:16:54.699Z,10.18
2018-07-11T06:17:54.808Z,10.17
2018-07-11T06:18:54.717Z,10.17
2018-07-11T06:19:54.726Z,10.15
2018-07-11T06:20:54.749Z,10.17
2018-07-11T06:21:54.744Z,10.15
2018-07-11T06:22:54.911Z,10.10
2018-07-11T06:23:54.767Z,10.17
2018-07-11T06:24:54.897Z,10.10
2018-07-11T06:25:54.904Z,10.03
2018-07-11T06:26:54.911Z,10.02
2018-07-11T06:27:55.059Z,10.06
2018-07-11T06:28:54.930Z,10.10
2018-07-11T06:29:54.941Z,10.06
2018-07-11T06:30:54.838Z,10.05
2018-07-11T06:31:54.825Z,10.07
2018-07-11T06:32:55.031Z,10.10
2018-07-11T06:33:54.863Z,10.07
2018-07-11T06:34:54.849Z,10.20
2018-07-11T06:35:54.866Z,10.21
2018-07-11T06:36:54.882Z,10.21
2018-07-11T06:37:55.108Z,10.30
2018-07-11T06:38:54.887Z,10.24
2018-07-11T06:39:54.901Z,10.30
2018-07-11T06:40:54.902Z,10.23
2018-07-11T06:41:55.037Z,10.30
2018-07-11T06:42:55.064Z,10.21
2018-07-11T06:43:54.924Z,10.24
2018-07-11T06:44:55.062Z,10.21
2018-07-11T06:45:54.985Z,10.28
2018-07-11T06:46:54.974Z,10.24
2018-07-11T06:47:55.297Z,10.28
2018-07-11T06:48:54.981Z,10.31
2018-07-11T06:49:54.975Z,10.28
2018-07-11T06:50:54.991Z,10.24
2018-07-11T06:51:55.124Z,10.25
2018-07-11T06:52:55.002Z,10.20
2018-07-11T06:53:55.163Z,10.23
2018-07-11T06:54:55.149Z,10.31
2018-07-11T06:55:55.032Z,10.28
2018-07-11T06:56:55.044Z,10.24
2018-07-11T06:57:55.049Z,10.25
2018-07-11T06:58:55.197Z,10.28
2018-07-11T06:59:55.071Z,10.27
2018-07-11T07:00:55.078Z,10.24
2018-07-11T07:01:55.126Z,10.18
2018-07-11T07:02:55.098Z,10.20
2018-07-11T07:03:55.251Z,10.18
2018-07-11T07:04:55.099Z,10.13
2018-07-11T07:05:55.113Z,10.12
2018-07-11T07:06:55.129Z,10.10
2018-07-11T07:07:55.142Z,10.21
2018-07-11T07:08:55.289Z,10.10
2018-07-11T07:09:55.154Z,10.13
2018-07-11T07:10:55.166Z,10.15
2018-07-11T07:11:55.203Z,10.10
2018-07-11T07:12:55.180Z,10.15
2018-07-11T07:13:55.191Z,10.12
2018-07-11T07:14:55.255Z,10.13
2018-07-11T07:15:55.323Z,10.10
2018-07-11T07:16:55.334Z,10.20
2018-07-11T07:17:55.340Z,10.20
2018-07-11T07:18:55.223Z,10.13
2018-07-11T07:19:55.237Z,10.23
2018-07-11T07:20:55.394Z,10.30
2018-07-11T07:21:55.250Z,10.21
2018-07-11T07:22:55.261Z,10.17
2018-07-11T07:23:55.286Z,10.10
2018-07-11T07:24:55.285Z,10.10
2018-07-11T07:25:55.510Z,10.09
2018-07-11T07:26:55.301Z,10.07
2018-07-11T07:27:55.309Z,10.06
2018-07-11T07:28:55.443Z,10.03
2018-07-11T07:29:55.444Z,10.18
2018-07-11T07:30:55.434Z,10.21
2018-07-11T07:31:55.333Z,10.15
2018-07-11T07:32:55.347Z,10.15
2018-07-11T07:33:55.347Z,10.12
2018-07-11T07:34:55.362Z,10.18
2018-07-11T07:35:55.420Z,10.10
2018-07-11T07:36:55.536Z,10.21
2018-07-11T07:37:55.512Z,10.12
2018-07-11T07:38:55.405Z,10.10
2018-07-11T07:39:55.400Z,10.25
2018-07-11T07:40:55.559Z,10.17
2018-07-11T07:41:55.423Z,10.28
2018-07-11T07:42:55.421Z,10.27
2018-07-11T07:43:55.427Z,10.28
2018-07-11T07:44:55.570Z,10.28
2018-07-11T07:45:55.731Z,10.31
2018-07-11T07:46:55.606Z,10.34
2018-07-11T07:47:55.465Z,10.31
2018-07-11T07:48:55.527Z,10.24
2018-07-11T07:49:55.492Z,10.24
2018-07-11T07:50:55.699Z,10.31
2018-07-11T07:51:55.510Z,10.39
2018-07-11T07:52:55.551Z,10.34
2018-07-11T07:53:55.514Z,10.36
2018-07-11T07:54:55.521Z,10.33
2018-07-11T07:55:55.811Z,10.42
2018-07-11T07:56:55.672Z,10.39
2018-07-11T07:57:55.548Z,10.38
2018-07-11T07:58:55.572Z,10.39
2018-07-11T07:59:55.693Z,10.49
2018-07-11T08:00:55.726Z,10.38
2018-07-11T08:01:55.597Z,10.45
2018-07-11T08:02:55.595Z,10.48
2018-07-11T08:03:55.729Z,10.48
2018-07-11T08:04:55.607Z,10.46
2018-07-11T08:05:55.664Z,10.46
2018-07-11T08:06:55.798Z,10.55
2018-07-11T08:07:55.761Z,10.58
2018-07-11T08:08:55.642Z,10.46
2018-07-11T08:09:55.778Z,10.55
2018-07-11T08:10:55.671Z,10.49
2018-07-11T08:11:55.822Z,10.49
2018-07-11T08:12:55.676Z,10.49
2018-07-11T08:13:55.683Z,10.55
2018-07-11T08:14:55.700Z,10.49
2018-07-11T08:15:55.700Z,10.45
2018-07-11T08:16:55.904Z,10.46
2018-07-11T08:17:55.739Z,10.55
2018-07-11T08:18:55.735Z,10.48
2018-07-11T08:19:55.863Z,10.48
2018-07-11T08:20:55.874Z,10.48
2018-07-11T08:21:56.033Z,10.49
2018-07-11T08:22:55.772Z,10.55
2018-07-11T08:23:55.770Z,10.48
2018-07-11T08:24:55.910Z,10.51
2018-07-11T08:25:55.788Z,10.45
2018-07-11T08:26:55.855Z,10.53
2018-07-11T08:27:55.818Z,10.53
2018-07-11T08:28:55.941Z,10.48
2018-07-11T08:29:55.839Z,10.57
2018-07-11T08:30:55.839Z,10.58
2018-07-11T08:31:56.120Z,10.65
2018-07-11T08:32:55.848Z,10.57
2018-07-11T08:33:55.867Z,10.53
2018-07-11T08:34:55.879Z,10.51
2018-07-11T08:35:56.002Z,10.51
2018-07-11T08:36:56.035Z,10.61
2018-07-11T08:37:55.905Z,10.49
2018-07-11T08:38:55.908Z,10.53
2018-07-11T08:39:55.918Z,10.51
2018-07-11T08:40:55.926Z,10.49
2018-07-11T08:41:56.207Z,10.51
2018-07-11T08:42:55.939Z,10.53
2018-07-11T08:43:55.952Z,10.53
2018-07-11T08:44:55.954Z,10.61
2018-07-11T08:45:55.976Z,10.65
2018-07-11T08:46:56.122Z,10.61
2018-07-11T08:47:56.040Z,10.58
2018-07-11T08:48:55.989Z,10.58
2018-07-11T08:49:55.995Z,10.53
2018-07-11T08:50:56.012Z,10.61
2018-07-11T08:51:56.159Z,10.61
2018-07-11T08:52:56.033Z,10.65
2018-07-11T08:53:56.158Z,10.62
2018-07-11T08:54:56.167Z,10.61
2018-07-11T08:55:56.084Z,10.64
2018-07-11T08:56:56.334Z,10.64
2018-07-11T08:57:56.087Z,10.64
2018-07-11T08:58:56.087Z,10.59
2018-07-11T08:59:56.208Z,10.64
2018-07-11T09:00:56.104Z,10.61
2018-07-11T09:01:56.098Z,10.61
2018-07-11T09:02:56.273Z,10.58
2018-07-11T09:03:56.244Z,10.58
2018-07-11T09:04:56.126Z,10.68
2018-07-11T09:05:56.135Z,10.64
2018-07-11T09:06:56.270Z,10.58
2018-07-11T09:07:56.149Z,10.58
2018-07-11T09:08:56.221Z,10.62
2018-07-11T09:09:56.173Z,10.57
2018-07-11T09:10:56.245Z,10.64
2018-07-11T09:11:56.187Z,10.58
2018-07-11T09:12:56.199Z,10.58
2018-07-11T09:13:56.482Z,10.64
2018-07-11T09:14:56.221Z,10.64
2018-07-11T09:15:56.227Z,10.58
2018-07-11T09:16:56.237Z,10.57
2018-07-11T09:17:56.293Z,10.53
2018-07-11T09:18:56.522Z,10.51
2018-07-11T09:19:56.269Z,10.49
2018-07-11T09:20:56.267Z,10.48
2018-07-11T09:21:56.285Z,10.49
2018-07-11T09:22:56.284Z,10.49
2018-07-11T09:23:56.468Z,10.53
2018-07-11T09:24:56.299Z,10.49
2018-07-11T09:25:56.433Z,10.55
2018-07-11T09:26:56.328Z,10.49
2018-07-11T09:27:56.319Z,10.49
2018-07-11T09:28:56.489Z,10.46
2018-07-11T09:29:56.344Z,10.43
2018-07-11T09:30:56.356Z,10.43
2018-07-11T09:31:56.364Z,10.53
2018-07-11T09:32:56.408Z,10.46
2018-07-11T09:33:56.533Z,10.49
2018-07-11T09:34:56.513Z,10.51
2018-07-11T09:35:56.390Z,10.55
2018-07-11T09:36:56.409Z,10.51
2018-07-11T09:37:56.457Z,10.49
2018-07-11T09:38:56.575Z,10.43
2018-07-11T09:39:56.434Z,10.38
2018-07-11T09:40:56.566Z,10.42
2018-07-11T09:41:56.571Z,10.41
2018-07-11T09:42:56.452Z,10.45
2018-07-11T09:43:56.622Z,10.39
2018-07-11T09:44:56.468Z,10.42
2018-07-11T09:45:56.500Z,10.41
2018-07-11T09:46:56.500Z,10.46
2018-07-11T09:47:56.622Z,10.51
2018-07-11T09:48:56.512Z,10.42
2018-07-11T09:49:56.788Z,10.46
2018-07-11T09:50:56.649Z,10.48
2018-07-11T09:51:56.537Z,10.55
2018-07-11T09:52:56.536Z,10.43
2018-07-11T09:53:56.675Z,10.57
2018-07-11T09:54:56.700Z,10.51
2018-07-11T09:55:56.585Z,10.48
2018-07-11T09:56:56.571Z,10.45
2018-07-11T09:57:56.600Z,10.59
2018-07-11T09:58:56.601Z,10.59
2018-07-11T09:59:56.881Z,10.48
2018-07-11T10:00:56.734Z,10.49
2018-07-11T10:01:56.670Z,10.61
2018-07-11T10:02:56.644Z,10.61
2018-07-11T10:03:56.640Z,10.58
2018-07-11T10:04:56.924Z,10.64
2018-07-11T10:05:56.658Z,10.65
2018-07-11T10:06:56.663Z,10.64
2018-07-11T10:07:56.674Z,10.76
2018-07-11T10:08:56.683Z,10.75
2018-07-11T10:09:56.917Z,10.72
2018-07-11T10:10:56.820Z,10.79
2018-07-11T10:11:56.735Z,10.90
2018-07-11T10:12:56.720Z,10.92
2018-07-11T10:13:56.728Z,10.90
2018-07-11T10:14:56.941Z,10.94
2018-07-11T10:15:56.742Z,10.97
2018-07-11T10:16:56.755Z,10.98
2018-07-11T10:17:56.753Z,11.00
2018-07-11T10:18:56.892Z,10.87
2018-07-11T10:19:56.829Z,10.82
2018-07-11T10:20:56.822Z,10.82
2018-07-11T10:21:56.789Z,10.86
2018-07-11T10:22:56.844Z,10.90
2018-07-11T10:23:56.820Z,10.83
2018-07-11T10:24:56.979Z,10.86
2018-07-11T10:25:56.873Z,10.84
2018-07-11T10:26:56.848Z,10.98
2018-07-11T10:28:56.859Z,10.98
2018-07-11T10:29:57.013Z,11.04
2018-07-11T10:30:56.880Z,11.12
2018-07-11T10:31:56.887Z,11.10
2018-07-11T10:32:56.888Z,11.20
2018-07-11T10:33:56.911Z,11.25
2018-07-11T10:34:57.055Z,11.18
2018-07-11T10:35:56.920Z,11.25
2018-07-11T10:36:56.938Z,11.26
2018-07-11T10:37:56.938Z,11.26
2018-07-11T10:38:56.945Z,11.20
2018-07-11T10:39:57.103Z,11.26
2018-07-11T10:40:57.091Z,11.30
2018-07-11T10:41:57.097Z,11.35
2018-07-11T10:42:57.002Z,11.35
2018-07-11T10:43:56.993Z,11.44
2018-07-11T10:44:57.231Z,11.44
2018-07-11T10:45:57.013Z,11.51
2018-07-11T10:46:57.143Z,11.58
2018-07-11T10:47:57.020Z,11.62
2018-07-11T10:48:57.034Z,11.63
2018-07-11T10:49:57.062Z,11.76
2018-07-11T10:50:57.224Z,11.78
2018-07-11T10:51:57.081Z,11.74
2018-07-11T10:52:57.072Z,11.77
2018-07-11T10:53:57.088Z,11.70
2018-07-11T10:54:57.090Z,11.77
2018-07-11T10:55:57.265Z,11.86
2018-07-11T10:56:57.176Z,11.83
2018-07-11T10:57:57.259Z,11.73
2018-07-11T10:58:57.257Z,11.77
2018-07-11T10:59:57.143Z,11.73
2018-07-11T11:01:05.696Z,11.65
2018-07-11T11:01:57.321Z,11.68
2018-07-11T11:02:57.179Z,11.71
2018-07-11T11:03:57.179Z,11.70
2018-07-11T11:04:57.423Z,11.76
2018-07-11T11:05:57.199Z,11.88
2018-07-11T11:06:57.338Z,12.02
2018-07-11T11:07:57.513Z,12.10
2018-07-11T11:08:57.227Z,12.10
2018-07-11T11:09:57.250Z,12.03
2018-07-11T11:10:57.257Z,12.02
2018-07-11T11:11:57.394Z,12.14
2018-07-11T11:12:57.428Z,12.33
2018-07-11T11:13:57.291Z,12.29
2018-07-11T11:14:57.301Z,12.30
2018-07-11T11:15:57.426Z,12.17
2018-07-11T11:16:57.438Z,12.28
2018-07-11T11:17:57.483Z,12.23
2018-07-11T11:18:57.458Z,12.25
2018-07-11T11:19:57.345Z,12.32
2018-07-11T11:20:57.362Z,12.33
2018-07-11T11:21:57.488Z,12.35
2018-07-11T11:22:57.498Z,12.43
2018-07-11T11:23:57.537Z,12.40
2018-07-11T11:24:57.397Z,12.40
2018-07-11T11:25:57.531Z,12.39
2018-07-11T11:26:57.405Z,12.37
2018-07-11T11:27:57.417Z,12.25
2018-07-11T11:28:57.440Z,12.28
2018-07-11T11:29:57.719Z,12.23
2018-07-11T11:30:57.579Z,12.26
2018-07-11T11:31:57.484Z,12.26
2018-07-11T11:32:57.486Z,12.39
2018-07-11T11:33:57.491Z,12.45
2018-07-11T11:34:57.647Z,12.39
2018-07-11T11:35:57.630Z,12.50
2018-07-11T11:36:57.524Z,12.50
2018-07-11T11:37:57.528Z,12.51
2018-07-11T11:38:57.549Z,12.47
2018-07-11T11:39:57.715Z,12.47
2018-07-11T11:40:57.558Z,12.50
2018-07-11T11:41:57.666Z,12.48
2018-07-11T11:42:57.669Z,12.51
2018-07-11T11:43:57.594Z,12.35
2018-07-11T11:44:57.777Z,12.28
2018-07-11T11:45:57.626Z,12.40
2018-07-11T11:46:57.625Z,12.33
2018-07-11T11:47:57.626Z,12.53
2018-07-11T11:48:57.645Z,12.35
2018-07-11T11:49:57.803Z,12.37
2018-07-11T11:50:57.678Z,12.28
2018-07-11T11:51:57.669Z,12.35
2018-07-11T11:52:57.676Z,12.39
2018-07-11T11:53:57.690Z,12.43
2018-07-11T11:54:57.851Z,12.63
2018-07-11T11:55:57.841Z,12.58
2018-07-11T11:56:57.733Z,12.69
2018-07-11T11:57:57.748Z,12.75
2018-07-11T11:58:57.758Z,12.76
2018-07-11T11:59:57.809Z,12.83
2018-07-11T12:00:57.902Z,12.95
2018-07-11T12:01:57.822Z,13.03
2018-07-11T12:02:57.946Z,13.16
2018-07-11T12:03:57.811Z,13.31
2018-07-11T12:04:57.807Z,13.31
2018-07-11T12:05:57.827Z,13.39
2018-07-11T12:06:57.959Z,13.43
2018-07-11T12:07:57.993Z,13.43
2018-07-11T12:08:57.852Z,13.60
2018-07-11T12:09:57.990Z,13.60
2018-07-11T12:10:57.874Z,13.71
2018-07-11T12:11:58.012Z,13.65
2018-07-11T12:12:58.060Z,13.71
2018-07-11T12:13:58.036Z,13.85
2018-07-11T12:14:57.932Z,13.95
2018-07-11T12:15:57.934Z,14.04
2018-07-11T12:16:58.074Z,14.25
2018-07-11T12:17:58.124Z,14.25
2018-07-11T12:18:57.965Z,14.34
2018-07-11T12:19:57.988Z,14.36
2018-07-11T12:20:57.996Z,14.53
2018-07-11T12:21:57.996Z,14.56
2018-07-11T12:22:58.157Z,14.73
2018-07-11T12:23:58.033Z,14.73
2018-07-11T12:24:58.042Z,14.81
2018-07-11T12:25:58.060Z,14.78
2018-07-11T12:26:58.064Z,14.79
2018-07-11T12:27:58.183Z,14.82
2018-07-11T12:28:58.092Z,14.85
2018-07-11T12:29:58.151Z,14.85
2018-07-11T12:30:58.106Z,14.85
2018-07-11T12:31:58.125Z,14.70
2018-07-11T12:32:58.407Z,14.70
2018-07-11T12:33:58.141Z,14.58
2018-07-11T12:34:58.152Z,14.31
2018-07-11T12:35:58.169Z,14.01
2018-07-11T12:36:58.191Z,14.00
2018-07-11T12:37:58.388Z,13.97
2018-07-11T12:38:58.215Z,14.05
2018-07-11T12:39:58.218Z,14.11
2018-07-11T12:40:58.353Z,14.11
2018-07-11T12:41:58.234Z,13.73
2018-07-11T12:42:58.528Z,13.64
2018-07-11T12:43:58.258Z,13.62
2018-07-11T12:44:58.287Z,13.87
2018-07-11T12:45:58.331Z,14.12
2018-07-11T12:46:58.318Z,14.31
2018-07-11T12:47:58.427Z,14.37
2018-07-11T12:48:58.331Z,14.71
2018-07-11T12:49:58.344Z,14.86
2018-07-11T12:50:58.359Z,15.08
2018-07-11T12:51:58.365Z,15.32
2018-07-11T12:52:58.521Z,15.44
2018-07-11T12:53:58.511Z,15.15
2018-07-11T12:54:58.521Z,15.15
2018-07-11T12:55:58.408Z,15.02
2018-07-11T12:56:58.415Z,14.93
2018-07-11T12:57:58.714Z,14.97
2018-07-11T12:58:58.574Z,15.32
2018-07-11T12:59:58.513Z,15.55
2018-07-11T13:00:58.541Z,15.55
2018-07-11T13:01:58.534Z,15.67
2018-07-11T13:02:58.597Z,16.05